CYMX/YMX METAR and TAF weather

Enter ICAO airport designator
Station Type Date Time Source
CYMX METAR 2019/06/17 13:00 UTC NOAA

CYMX 171300Z 07003KT 020V140 45SM FEW030 FEW250 17/10 A3001 RMK CU1CI1 CU TR CI TR SLP164 DENSITY ALT 500FT


Station Type Date Time Source
CYMX Decoded METAR 2019/06/17 13:00 UTC NOAA

Montreal / Mirabel, Canada (CYMX) 45-41N 074-02W
Jun 17, 2019 - 09:00 AM EDT / 2019.06.17 1300 UTC
Wind: from the ENE (070 degrees) at 3 MPH (3 KT) (direction variable):0
Visibility: 45 mile(s):0
Sky conditions: mostly clear
Temperature: 62 F (17 C)
Dew Point: 50 F (10 C)
Relative Humidity: 63%
Pressure (altimeter): 30.01 in. Hg (1016 hPa)
ob: CYMX 171300Z 07003KT 020V140 45SM FEW030 FEW250 17/10 A3001 RMK CU1CI1 CU TR CI TR SLP164 DENSITY ALT 500FT
cycle: 13

Station Type Date Time Source
CYMX TAF 2019/06/17 12:42 UTC NOAA

TAF CYMX 171138Z 1712/1812 VRB03KT P6SM FEW050
FM171600 26008KT P6SM SCT050
FM172100 27006KT P6SM SKC
RMK NXT FCST BY 171800Z

Example: see airport list